sensor_id;sensor_type;location;lat;lon;timestamp;temperature;humidity
13326;DHT22;6732;51.044;3.746;2022-10-31T02:48:22;15.00;99.90
13326;DHT22;6732;51.044;3.746;2022-10-31T02:50:59;15.00;99.90
13326;DHT22;6732;51.044;3.746;2022-10-31T02:53:26;14.90;99.90
13326;DHT22;6732;51.044;3.746;2022-10-31T02:55:59;15.00;99.90
13326;DHT22;6732;51.044;3.746;2022-10-31T02:58:29;14.90;99.90
13326;DHT22;6732;51.044;3.746;2022-10-31T03:07:11;14.90;99.90
13326;DHT22;6732;51.044;3.746;2022-10-31T03:15:55;14.80;99.90
13326;DHT22;6732;51.044;3.746;2022-10-31T03:18:32;14.80;99.90
13326;DHT22;6732;51.044;3.746;2022-10-31T03:21:06;14.80;99.90
13326;DHT22;6732;51.044;3.746;2022-10-31T03:23:34;14.80;99.90
13326;DHT22;6732;51.044;3.746;2022-10-31T03:26:03;14.70;99.90
13326;DHT22;6732;51.044;3.746;2022-10-31T03:28:36;14.70;99.90
13326;DHT22;6732;51.044;3.746;2022-10-31T03:31:04;14.70;99.90
13326;DHT22;6732;51.044;3.746;2022-10-31T03:33:34;14.70;99.90
13326;DHT22;6732;51.044;3.746;2022-10-31T03:36:04;14.70;99.90
13326;DHT22;6732;51.044;3.746;2022-10-31T03:38:32;14.70;99.90
13326;DHT22;6732;51.044;3.746;2022-10-31T03:41:03;14.70;99.90
13326;DHT22;6732;51.044;3.746;2022-10-31T03:43:33;14.70;99.90
13326;DHT22;6732;51.044;3.746;2022-10-31T03:46:03;14.70;99.90
13326;DHT22;6732;51.044;3.746;2022-10-31T03:48:30;14.70;99.90
13326;DHT22;6732;51.044;3.746;2022-10-31T03:51:51;14.70;99.90
13326;DHT22;6732;51.044;3.746;2022-10-31T03:56:51;14.60;99.90
13326;DHT22;6732;51.044;3.746;2022-10-31T03:59:32;14.60;99.90
13326;DHT22;6732;51.044;3.746;2022-10-31T04:02:03;14.60;99.90
13326;DHT22;6732;51.044;3.746;2022-10-31T04:04:32;14.60;99.90
13326;DHT22;6732;51.044;3.746;2022-10-31T04:07:00;14.60;99.90
13326;DHT22;6732;51.044;3.746;2022-10-31T04:09:28;14.60;99.90
13326;DHT22;6732;51.044;3.746;2022-10-31T04:11:58;14.60;99.90
13326;DHT22;6732;51.044;3.746;2022-10-31T04:14:28;14.50;99.90
13326;DHT22;6732;51.044;3.746;2022-10-31T04:16:55;14.50;99.90
13326;DHT22;6732;51.044;3.746;2022-10-31T04:19:21;14.50;99.90
13326;DHT22;6732;51.044;3.746;2022-10-31T04:21:47;14.50;99.90
13326;DHT22;6732;51.044;3.746;2022-10-31T04:24:13;14.50;99.90
13326;DHT22;6732;51.044;3.746;2022-10-31T04:26:38;14.50;99.90
13326;DHT22;6732;51.044;3.746;2022-10-31T04:29:04;14.50;99.90
13326;DHT22;6732;51.044;3.746;2022-10-31T04:31:30;14.50;99.90
13326;DHT22;6732;51.044;3.746;2022-10-31T04:33:56;14.40;99.90
13326;DHT22;6732;51.044;3.746;2022-10-31T04:36:22;14.40;99.90
13326;DHT22;6732;51.044;3.746;2022-10-31T04:38:48;14.40;99.90
13326;DHT22;6732;51.044;3.746;2022-10-31T04:41:14;14.40;99.90
13326;DHT22;6732;51.044;3.746;2022-10-31T04:43:40;14.40;99.90
13326;DHT22;6732;51.044;3.746;2022-10-31T04:46:05;14.40;99.90
13326;DHT22;6732;51.044;3.746;2022-10-31T04:48:31;14.40;99.90
13326;DHT22;6732;51.044;3.746;2022-10-31T04:51:01;14.30;99.90
13326;DHT22;6732;51.044;3.746;2022-10-31T04:53:27;14.40;99.90
13326;DHT22;6732;51.044;3.746;2022-10-31T04:55:53;14.30;99.90
13326;DHT22;6732;51.044;3.746;2022-10-31T04:58:19;14.30;99.90
13326;DHT22;6732;51.044;3.746;2022-10-31T05:00:45;14.30;99.90
13326;DHT22;6732;51.044;3.746;2022-10-31T05:03:11;14.30;99.90
13326;DHT22;6732;51.044;3.746;2022-10-31T05:05:37;14.30;99.90
13326;DHT22;6732;51.044;3.746;2022-10-31T05:08:03;14.20;99.90
13326;DHT22;6732;51.044;3.746;2022-10-31T05:10:30;14.20;99.90
13326;DHT22;6732;51.044;3.746;2022-10-31T05:12:58;14.20;99.90
13326;DHT22;6732;51.044;3.746;2022-10-31T05:15:26;14.20;99.90
13326;DHT22;6732;51.044;3.746;2022-10-31T05:17:52;14.20;99.90
13326;DHT22;6732;51.044;3.746;2022-10-31T05:20:20;14.20;99.90
13326;DHT22;6732;51.044;3.746;2022-10-31T05:22:49;14.10;99.90
13326;DHT22;6732;51.044;3.746;2022-10-31T05:25:19;14.10;99.90
13326;DHT22;6732;51.044;3.746;2022-10-31T05:27:47;14.10;99.90
13326;DHT22;6732;51.044;3.746;2022-10-31T05:30:16;14.10;99.90
13326;DHT22;6732;51.044;3.746;2022-10-31T05:32:44;14.10;99.90
13326;DHT22;6732;51.044;3.746;2022-10-31T05:35:19;14.10;99.90
13326;DHT22;6732;51.044;3.746;2022-10-31T05:37:45;14.00;99.90
13326;DHT22;6732;51.044;3.746;2022-10-31T05:40:13;14.10;99.90
13326;DHT22;6732;51.044;3.746;2022-10-31T05:42:40;14.00;99.90
13326;DHT22;6732;51.044;3.746;2022-10-31T05:45:08;14.00;99.90
13326;DHT22;6732;51.044;3.746;2022-10-31T05:47:34;14.00;99.90
13326;DHT22;6732;51.044;3.746;2022-10-31T05:50:00;14.00;99.90
13326;DHT22;6732;51.044;3.746;2022-10-31T05:52:26;13.90;99.90
13326;DHT22;6732;51.044;3.746;2022-10-31T05:54:52;14.00;99.90
13326;DHT22;6732;51.044;3.746;2022-10-31T05:57:18;13.90;99.90
13326;DHT22;6732;51.044;3.746;2022-10-31T05:59:44;13.90;99.90
13326;DHT22;6732;51.044;3.746;2022-10-31T06:02:10;13.90;99.90
13326;DHT22;6732;51.044;3.746;2022-10-31T06:04:36;13.90;99.90
13326;DHT22;6732;51.044;3.746;2022-10-31T06:07:02;13.90;99.90
13326;DHT22;6732;51.044;3.746;2022-10-31T06:09:28;13.90;99.90
13326;DHT22;6732;51.044;3.746;2022-10-31T06:11:54;13.80;99.90
13326;DHT22;6732;51.044;3.746;2022-10-31T06:14:41;13.90;99.90
13326;DHT22;6732;51.044;3.746;2022-10-31T06:17:08;13.90;99.90
13326;DHT22;6732;51.044;3.746;2022-10-31T06:19:39;13.80;99.90
13326;DHT22;6732;51.044;3.746;2022-10-31T06:22:08;13.80;99.90
13326;DHT22;6732;51.044;3.746;2022-10-31T06:24:34;13.90;99.90
13326;DHT22;6732;51.044;3.746;2022-10-31T06:27:03;13.80;99.90
13326;DHT22;6732;51.044;3.746;2022-10-31T06:29:33;13.80;99.90
13326;DHT22;6732;51.044;3.746;2022-10-31T06:32:01;13.90;99.90
13326;DHT22;6732;51.044;3.746;2022-10-31T06:34:27;13.80;99.90
13326;DHT22;6732;51.044;3.746;2022-10-31T06:37:08;13.90;99.90
13326;DHT22;6732;51.044;3.746;2022-10-31T06:39:34;13.90;99.90
13326;DHT22;6732;51.044;3.746;2022-10-31T06:42:04;13.80;99.90
13326;DHT22;6732;51.044;3.746;2022-10-31T06:44:43;13.90;99.90
13326;DHT22;6732;51.044;3.746;2022-10-31T06:47:13;13.80;99.90
13326;DHT22;6732;51.044;3.746;2022-10-31T06:49:42;13.80;99.90
13326;DHT22;6732;51.044;3.746;2022-10-31T06:52:11;13.90;99.90
13326;DHT22;6732;51.044;3.746;2022-10-31T06:54:37;13.90;99.90
13326;DHT22;6732;51.044;3.746;2022-10-31T06:57:09;13.90;99.90
13326;DHT22;6732;51.044;3.746;2022-10-31T06:59:44;13.90;99.90
13326;DHT22;6732;51.044;3.746;2022-10-31T07:02:13;13.90;99.90
13326;DHT22;6732;51.044;3.746;2022-10-31T07:04:39;13.90;99.90
13326;DHT22;6732;51.044;3.746;2022-10-31T07:07:05;13.90;99.90
13326;DHT22;6732;51.044;3.746;2022-10-31T07:09:31;13.90;99.90
13326;DHT22;6732;51.044;3.746;2022-10-31T07:11:57;13.90;99.90
13326;DHT22;6732;51.044;3.746;2022-10-31T07:14:26;13.90;99.90
13326;DHT22;6732;51.044;3.746;2022-10-31T07:16:57;13.90;99.90
13326;DHT22;6732;51.044;3.746;2022-10-31T07:19:23;13.90;99.90
13326;DHT22;6732;51.044;3.746;2022-10-31T07:21:50;13.90;99.90
13326;DHT22;6732;51.044;3.746;2022-10-31T07:24:16;13.90;99.90
13326;DHT22;6732;51.044;3.746;2022-10-31T07:26:42;13.90;99.90
13326;DHT22;6732;51.044;3.746;2022-10-31T07:29:09;13.90;99.90
13326;DHT22;6732;51.044;3.746;2022-10-31T07:31:35;13.90;99.90
13326;DHT22;6732;51.044;3.746;2022-10-31T07:34:01;13.90;99.90
13326;DHT22;6732;51.044;3.746;2022-10-31T07:36:27;13.90;99.90
13326;DHT22;6732;51.044;3.746;2022-10-31T07:38:56;13.90;99.90
13326;DHT22;6732;51.044;3.746;2022-10-31T07:41:27;14.00;99.90
13326;DHT22;6732;51.044;3.746;2022-10-31T07:43:57;13.90;99.90
13326;DHT22;6732;51.044;3.746;2022-10-31T07:46:33;13.90;99.90
13326;DHT22;6732;51.044;3.746;2022-10-31T07:49:01;14.00;99.90
13326;DHT22;6732;51.044;3.746;2022-10-31T07:51:45;13.90;99.90
13326;DHT22;6732;51.044;3.746;2022-10-31T07:54:13;14.00;99.90
13326;DHT22;6732;51.044;3.746;2022-10-31T07:56:42;14.00;99.90
13326;DHT22;6732;51.044;3.746;2022-10-31T07:59:09;14.00;99.90
13326;DHT22;6732;51.044;3.746;2022-10-31T08:01:35;14.00;99.90
13326;DHT22;6732;51.044;3.746;2022-10-31T08:04:07;14.00;99.90
13326;DHT22;6732;51.044;3.746;2022-10-31T08:06:37;14.00;99.90
13326;DHT22;6732;51.044;3.746;2022-10-31T08:09:05;14.00;99.90
13326;DHT22;6732;51.044;3.746;2022-10-31T08:11:31;14.00;99.90
13326;DHT22;6732;51.044;3.746;2022-10-31T08:13:58;14.00;99.90
13326;DHT22;6732;51.044;3.746;2022-10-31T08:16:24;14.00;99.90
13326;DHT22;6732;51.044;3.746;2022-10-31T08:18:51;14.00;99.90
13326;DHT22;6732;51.044;3.746;2022-10-31T08:21:19;14.00;99.90
13326;DHT22;6732;51.044;3.746;2022-10-31T08:23:47;14.00;99.90
13326;DHT22;6732;51.044;3.746;2022-10-31T08:26:15;14.00;99.90
13326;DHT22;6732;51.044;3.746;2022-10-31T08:28:50;14.10;99.90
13326;DHT22;6732;51.044;3.746;2022-10-31T08:31:21;14.10;99.90
13326;DHT22;6732;51.044;3.746;2022-10-31T08:33:49;14.10;99.90
13326;DHT22;6732;51.044;3.746;2022-10-31T08:36:21;14.10;99.90
13326;DHT22;6732;51.044;3.746;2022-10-31T08:38:50;14.10;99.90
13326;DHT22;6732;51.044;3.746;2022-10-31T08:41:17;14.10;99.90
13326;DHT22;6732;51.044;3.746;2022-10-31T08:43:57;14.10;99.90
13326;DHT22;6732;51.044;3.746;2022-10-31T08:46:32;14.10;99.90
13326;DHT22;6732;51.044;3.746;2022-10-31T08:49:04;14.10;99.90
13326;DHT22;6732;51.044;3.746;2022-10-31T08:51:31;14.10;99.90
13326;DHT22;6732;51.044;3.746;2022-10-31T08:53:59;14.10;99.90
13326;DHT22;6732;51.044;3.746;2022-10-31T08:56:28;14.10;99.90
13326;DHT22;6732;51.044;3.746;2022-10-31T08:59:03;14.20;99.90
13326;DHT22;6732;51.044;3.746;2022-10-31T09:01:31;14.20;99.90
13326;DHT22;6732;51.044;3.746;2022-10-31T09:03:57;14.20;99.90
13326;DHT22;6732;51.044;3.746;2022-10-31T09:06:28;14.20;99.90
13326;DHT22;6732;51.044;3.746;2022-10-31T09:09:10;14.20;99.90
13326;DHT22;6732;51.044;3.746;2022-10-31T09:11:46;14.20;99.90
13326;DHT22;6732;51.044;3.746;2022-10-31T09:14:21;14.20;99.90
13326;DHT22;6732;51.044;3.746;2022-10-31T09:16:53;14.20;99.90
13326;DHT22;6732;51.044;3.746;2022-10-31T09:19:27;14.30;99.90
13326;DHT22;6732;51.044;3.746;2022-10-31T09:22:38;14.30;99.90
13326;DHT22;6732;51.044;3.746;2022-10-31T09:25:05;14.30;99.90
13326;DHT22;6732;51.044;3.746;2022-10-31T09:27:30;14.30;99.90
13326;DHT22;6732;51.044;3.746;2022-10-31T09:29:57;14.30;99.90
13326;DHT22;6732;51.044;3.746;2022-10-31T09:32:23;14.30;99.90
13326;DHT22;6732;51.044;3.746;2022-10-31T09:34:51;14.40;99.90
13326;DHT22;6732;51.044;3.746;2022-10-31T09:37:17;14.40;99.90
13326;DHT22;6732;51.044;3.746;2022-10-31T09:39:43;14.40;99.90
13326;DHT22;6732;51.044;3.746;2022-10-31T09:48:06;14.50;99.90
13326;DHT22;6732;51.044;3.746;2022-10-31T09:53:03;14.50;99.90
13326;DHT22;6732;51.044;3.746;2022-10-31T09:55:37;14.50;99.90
13326;DHT22;6732;51.044;3.746;2022-10-31T09:58:05;14.50;99.90
13326;DHT22;6732;51.044;3.746;2022-10-31T10:00:31;14.50;99.90
13326;DHT22;6732;51.044;3.746;2022-10-31T10:08:32;14.50;99.90
13326;DHT22;6732;51.044;3.746;2022-10-31T10:14:11;14.60;99.90
13326;DHT22;6732;51.044;3.746;2022-10-31T10:22:58;14.60;99.90
13326;DHT22;6732;51.044;3.746;2022-10-31T10:25:37;14.70;99.90
13326;DHT22;6732;51.044;3.746;2022-10-31T10:28:29;14.70;99.90
13326;DHT22;6732;51.044;3.746;2022-10-31T10:33:36;14.70;99.90
13326;DHT22;6732;51.044;3.746;2022-10-31T10:36:20;14.70;99.90
13326;DHT22;6732;51.044;3.746;2022-10-31T10:39:24;14.80;99.90
13326;DHT22;6732;51.044;3.746;2022-10-31T10:41:51;14.80;99.90
13326;DHT22;6732;51.044;3.746;2022-10-31T10:44:42;14.80;99.90
13326;DHT22;6732;51.044;3.746;2022-10-31T10:47:44;14.80;99.90
13326;DHT22;6732;51.044;3.746;2022-10-31T10:50:20;14.80;99.90
13326;DHT22;6732;51.044;3.746;2022-10-31T10:55:49;14.90;99.90
13326;DHT22;6732;51.044;3.746;2022-10-31T10:58:16;14.90;99.90
13326;DHT22;6732;51.044;3.746;2022-10-31T11:00:44;14.90;99.90
13326;DHT22;6732;51.044;3.746;2022-10-31T11:03:14;15.00;99.90
13326;DHT22;6732;51.044;3.746;2022-10-31T11:05:55;15.00;99.90
13326;DHT22;6732;51.044;3.746;2022-10-31T11:08:34;15.00;99.90
13326;DHT22;6732;51.044;3.746;2022-10-31T11:13:30;15.10;99.90
13326;DHT22;6732;51.044;3.746;2022-10-31T11:16:00;15.10;99.90
13326;DHT22;6732;51.044;3.746;2022-10-31T11:18:30;15.10;99.90
13326;DHT22;6732;51.044;3.746;2022-10-31T11:20:59;15.10;99.90
13326;DHT22;6732;51.044;3.746;2022-10-31T11:23:27;15.20;99.90
13326;DHT22;6732;51.044;3.746;2022-10-31T11:28:22;15.20;99.90
13326;DHT22;6732;51.044;3.746;2022-10-31T11:30:52;15.20;99.90
13326;DHT22;6732;51.044;3.746;2022-10-31T11:35:50;15.30;99.90
13326;DHT22;6732;51.044;3.746;2022-10-31T11:38:20;15.30;99.90
13326;DHT22;6732;51.044;3.746;2022-10-31T11:41:05;15.30;99.90
13326;DHT22;6732;51.044;3.746;2022-10-31T11:43:34;15.40;99.90
13326;DHT22;6732;51.044;3.746;2022-10-31T11:46:11;15.40;99.90
13326;DHT22;6732;51.044;3.746;2022-10-31T11:48:38;15.40;99.90
13326;DHT22;6732;51.044;3.746;2022-10-31T11:51:04;15.40;99.90
13326;DHT22;6732;51.044;3.746;2022-10-31T11:53:33;15.50;99.90
13326;DHT22;6732;51.044;3.746;2022-10-31T11:58:31;15.50;99.90
13326;DHT22;6732;51.044;3.746;2022-10-31T12:00:57;15.60;99.90
13326;DHT22;6732;51.044;3.746;2022-10-31T12:08:19;15.60;99.90
13326;DHT22;6732;51.044;3.746;2022-10-31T12:16:18;15.70;99.90
13326;DHT22;6732;51.044;3.746;2022-10-31T12:19:03;15.70;99.90
13326;DHT22;6732;51.044;3.746;2022-10-31T12:21:56;15.70;99.90
13326;DHT22;6732;51.044;3.746;2022-10-31T12:30:20;15.80;99.90
13326;DHT22;6732;51.044;3.746;2022-10-31T12:35:32;15.80;99.90
13326;DHT22;6732;51.044;3.746;2022-10-31T12:38:22;15.80;99.90
13326;DHT22;6732;51.044;3.746;2022-10-31T12:43:51;15.90;99.90
13326;DHT22;6732;51.044;3.746;2022-10-31T12:49:05;15.90;99.90
13326;DHT22;6732;51.044;3.746;2022-10-31T13:00:14;16.00;99.90
13326;DHT22;6732;51.044;3.746;2022-10-31T13:03:13;16.00;99.90
13326;DHT22;6732;51.044;3.746;2022-10-31T13:05:43;16.00;99.90
13326;DHT22;6732;51.044;3.746;2022-10-31T13:08:20;16.10;99.90
13326;DHT22;6732;51.044;3.746;2022-10-31T13:11:05;16.10;99.90
13326;DHT22;6732;51.044;3.746;2022-10-31T13:13:38;16.10;99.90
13326;DHT22;6732;51.044;3.746;2022-10-31T13:16:15;16.10;99.90
13326;DHT22;6732;51.044;3.746;2022-10-31T13:18:54;16.10;99.90
13326;DHT22;6732;51.044;3.746;2022-10-31T13:21:27;16.10;99.90
13326;DHT22;6732;51.044;3.746;2022-10-31T13:23:55;16.10;99.90
13326;DHT22;6732;51.044;3.746;2022-10-31T13:26:36;16.10;99.90
13326;DHT22;6732;51.044;3.746;2022-10-31T13:31:47;16.20;99.90
13326;DHT22;6732;51.044;3.746;2022-10-31T13:45:14;16.30;99.90
13326;DHT22;6732;51.044;3.746;2022-10-31T13:47:41;16.30;99.90
13326;DHT22;6732;51.044;3.746;2022-10-31T13:50:23;16.30;99.90
13326;DHT22;6732;51.044;3.746;2022-10-31T13:52:49;16.40;99.90
13326;DHT22;6732;51.044;3.746;2022-10-31T13:58:04;16.40;99.90
13326;DHT22;6732;51.044;3.746;2022-10-31T14:00:31;16.40;99.90
13326;DHT22;6732;51.044;3.746;2022-10-31T14:03:00;16.40;99.90
13326;DHT22;6732;51.044;3.746;2022-10-31T14:05:34;16.40;99.90
13326;DHT22;6732;51.044;3.746;2022-10-31T14:08:03;16.50;99.90
13326;DHT22;6732;51.044;3.746;2022-10-31T14:10:36;16.50;99.90
13326;DHT22;6732;51.044;3.746;2022-10-31T14:13:07;16.50;99.90
13326;DHT22;6732;51.044;3.746;2022-10-31T14:15:36;16.50;99.90
13326;DHT22;6732;51.044;3.746;2022-10-31T14:18:06;16.50;99.90
13326;DHT22;6732;51.044;3.746;2022-10-31T14:20:41;16.50;99.90
13326;DHT22;6732;51.044;3.746;2022-10-31T14:28:50;16.50;99.90
13326;DHT22;6732;51.044;3.746;2022-10-31T14:42:41;16.50;99.90
13326;DHT22;6732;51.044;3.746;2022-10-31T14:48:00;16.50;99.90
13326;DHT22;6732;51.044;3.746;2022-10-31T14:50:41;16.50;99.90
13326;DHT22;6732;51.044;3.746;2022-10-31T14:55:49;16.50;99.90
13326;DHT22;6732;51.044;3.746;2022-10-31T14:58:39;16.50;99.90
13326;DHT22;6732;51.044;3.746;2022-10-31T15:01:04;16.50;99.90
13326;DHT22;6732;51.044;3.746;2022-10-31T15:03:38;16.50;99.90
13326;DHT22;6732;51.044;3.746;2022-10-31T15:06:14;16.50;99.90
13326;DHT22;6732;51.044;3.746;2022-10-31T15:08:50;16.50;99.90
13326;DHT22;6732;51.044;3.746;2022-10-31T15:11:22;16.50;99.90
13326;DHT22;6732;51.044;3.746;2022-10-31T15:13:55;16.50;99.90
13326;DHT22;6732;51.044;3.746;2022-10-31T15:16:34;16.50;99.90
13326;DHT22;6732;51.044;3.746;2022-10-31T15:19:13;16.50;99.90
13326;DHT22;6732;51.044;3.746;2022-10-31T15:21:44;16.50;99.90
13326;DHT22;6732;51.044;3.746;2022-10-31T15:24:16;16.50;99.90
13326;DHT22;6732;51.044;3.746;2022-10-31T15:26:50;16.50;99.90
13326;DHT22;6732;51.044;3.746;2022-10-31T15:29:19;16.50;99.90
13326;DHT22;6732;51.044;3.746;2022-10-31T15:31:56;16.50;99.90
13326;DHT22;6732;51.044;3.746;2022-10-31T15:34:30;16.50;99.90
13326;DHT22;6732;51.044;3.746;2022-10-31T15:36:59;16.50;99.90
13326;DHT22;6732;51.044;3.746;2022-10-31T15:39:25;16.50;99.90
13326;DHT22;6732;51.044;3.746;2022-10-31T15:41:54;16.50;99.90
13326;DHT22;6732;51.044;3.746;2022-10-31T15:44:30;16.40;99.90
13326;DHT22;6732;51.044;3.746;2022-10-31T15:47:02;16.40;99.90
13326;DHT22;6732;51.044;3.746;2022-10-31T15:49:38;16.40;99.90
13326;DHT22;6732;51.044;3.746;2022-10-31T15:54:50;16.40;99.90
13326;DHT22;6732;51.044;3.746;2022-10-31T15:57:17;16.40;99.90
13326;DHT22;6732;51.044;3.746;2022-10-31T15:59:46;16.40;99.90
13326;DHT22;6732;51.044;3.746;2022-10-31T16:02:14;16.40;99.90
13326;DHT22;6732;51.044;3.746;2022-10-31T16:04:56;16.30;99.90
13326;DHT22;6732;51.044;3.746;2022-10-31T16:07:23;16.30;99.90
13326;DHT22;6732;51.044;3.746;2022-10-31T16:10:02;16.30;99.90
13326;DHT22;6732;51.044;3.746;2022-10-31T16:12:37;16.30;99.90
13326;DHT22;6732;51.044;3.746;2022-10-31T16:15:04;16.30;99.90
13326;DHT22;6732;51.044;3.746;2022-10-31T16:17:31;16.20;99.90
13326;DHT22;6732;51.044;3.746;2022-10-31T16:20:03;16.20;99.90
13326;DHT22;6732;51.044;3.746;2022-10-31T16:22:37;16.20;99.90
13326;DHT22;6732;51.044;3.746;2022-10-31T16:25:11;16.20;99.90
13326;DHT22;6732;51.044;3.746;2022-10-31T16:27:38;16.20;99.90
13326;DHT22;6732;51.044;3.746;2022-10-31T16:30:44;16.20;99.90
13326;DHT22;6732;51.044;3.746;2022-10-31T16:33:31;16.10;99.90
13326;DHT22;6732;51.044;3.746;2022-10-31T16:38:54;16.10;99.90
13326;DHT22;6732;51.044;3.746;2022-10-31T16:41:20;16.10;99.90
13326;DHT22;6732;51.044;3.746;2022-10-31T16:43:46;16.10;99.90
13326;DHT22;6732;51.044;3.746;2022-10-31T16:46:17;16.00;99.90
13326;DHT22;6732;51.044;3.746;2022-10-31T16:48:44;16.00;99.90
13326;DHT22;6732;51.044;3.746;2022-10-31T16:51:11;16.00;99.90
13326;DHT22;6732;51.044;3.746;2022-10-31T16:53:37;16.00;99.90
13326;DHT22;6732;51.044;3.746;2022-10-31T16:56:03;15.90;99.90
13326;DHT22;6732;51.044;3.746;2022-10-31T16:58:32;15.90;99.90
13326;DHT22;6732;51.044;3.746;2022-10-31T17:00:59;15.90;99.90
13326;DHT22;6732;51.044;3.746;2022-10-31T17:03:26;15.90;99.90
13326;DHT22;6732;51.044;3.746;2022-10-31T17:05:53;15.90;99.90
13326;DHT22;6732;51.044;3.746;2022-10-31T17:08:21;15.80;99.90
13326;DHT22;6732;51.044;3.746;2022-10-31T17:10:48;15.80;99.90
13326;DHT22;6732;51.044;3.746;2022-10-31T17:13:19;15.80;99.90
13326;DHT22;6732;51.044;3.746;2022-10-31T17:15:48;15.80;99.90
13326;DHT22;6732;51.044;3.746;2022-10-31T17:18:16;15.70;99.90
13326;DHT22;6732;51.044;3.746;2022-10-31T17:20:43;15.70;99.90
13326;DHT22;6732;51.044;3.746;2022-10-31T17:23:13;15.70;99.90
13326;DHT22;6732;51.044;3.746;2022-10-31T17:25:40;15.70;99.90
13326;DHT22;6732;51.044;3.746;2022-10-31T17:28:06;15.70;99.90
13326;DHT22;6732;51.044;3.746;2022-10-31T17:30:32;15.60;99.90
13326;DHT22;6732;51.044;3.746;2022-10-31T17:32:59;15.60;99.90
13326;DHT22;6732;51.044;3.746;2022-10-31T17:35:25;15.60;99.90
13326;DHT22;6732;51.044;3.746;2022-10-31T17:37:51;15.60;99.90
13326;DHT22;6732;51.044;3.746;2022-10-31T17:40:18;15.60;99.90
13326;DHT22;6732;51.044;3.746;2022-10-31T17:42:53;15.60;99.90
13326;DHT22;6732;51.044;3.746;2022-10-31T17:45:20;15.50;99.90
13326;DHT22;6732;51.044;3.746;2022-10-31T17:47:47;15.50;99.90
13326;DHT22;6732;51.044;3.746;2022-10-31T17:50:15;15.50;99.90
13326;DHT22;6732;51.044;3.746;2022-10-31T17:52:42;15.50;99.90
13326;DHT22;6732;51.044;3.746;2022-10-31T17:55:08;15.50;99.90
13326;DHT22;6732;51.044;3.746;2022-10-31T17:57:35;15.50;99.90
13326;DHT22;6732;51.044;3.746;2022-10-31T18:00:03;15.50;99.90
13326;DHT22;6732;51.044;3.746;2022-10-31T18:02:29;15.50;99.90
13326;DHT22;6732;51.044;3.746;2022-10-31T18:04:56;15.50;99.90
13326;DHT22;6732;51.044;3.746;2022-10-31T18:07:22;15.50;99.90
13326;DHT22;6732;51.044;3.746;2022-10-31T18:09:48;15.50;99.90
13326;DHT22;6732;51.044;3.746;2022-10-31T18:12:15;15.50;99.90
13326;DHT22;6732;51.044;3.746;2022-10-31T18:14:41;15.50;99.90
13326;DHT22;6732;51.044;3.746;2022-10-31T18:17:07;15.50;99.90
13326;DHT22;6732;51.044;3.746;2022-10-31T18:19:33;15.50;99.90
13326;DHT22;6732;51.044;3.746;2022-10-31T18:21:59;15.50;99.90
13326;DHT22;6732;51.044;3.746;2022-10-31T18:24:25;15.60;99.90
13326;DHT22;6732;51.044;3.746;2022-10-31T18:26:53;15.50;99.90
13326;DHT22;6732;51.044;3.746;2022-10-31T18:29:19;15.60;99.90
13326;DHT22;6732;51.044;3.746;2022-10-31T18:31:45;15.60;99.90
13326;DHT22;6732;51.044;3.746;2022-10-31T18:34:14;15.60;99.90
13326;DHT22;6732;51.044;3.746;2022-10-31T18:36:40;15.60;99.90
13326;DHT22;6732;51.044;3.746;2022-10-31T18:39:06;15.60;99.90
13326;DHT22;6732;51.044;3.746;2022-10-31T18:41:32;15.60;99.90
13326;DHT22;6732;51.044;3.746;2022-10-31T18:43:58;15.60;99.90
13326;DHT22;6732;51.044;3.746;2022-10-31T18:46:26;15.60;99.90
13326;DHT22;6732;51.044;3.746;2022-10-31T18:48:52;15.60;99.90
13326;DHT22;6732;51.044;3.746;2022-10-31T18:51:18;15.60;99.90
13326;DHT22;6732;51.044;3.746;2022-10-31T18:53:52;15.60;99.90
13326;DHT22;6732;51.044;3.746;2022-10-31T18:56:19;15.60;99.90
13326;DHT22;6732;51.044;3.746;2022-10-31T18:58:45;15.70;99.90
13326;DHT22;6732;51.044;3.746;2022-10-31T19:01:12;15.70;99.90
13326;DHT22;6732;51.044;3.746;2022-10-31T19:03:39;15.70;99.90
13326;DHT22;6732;51.044;3.746;2022-10-31T19:06:06;15.70;99.90
13326;DHT22;6732;51.044;3.746;2022-10-31T19:08:33;15.70;99.90
13326;DHT22;6732;51.044;3.746;2022-10-31T19:11:08;15.70;99.90
13326;DHT22;6732;51.044;3.746;2022-10-31T19:13:35;15.70;99.90
13326;DHT22;6732;51.044;3.746;2022-10-31T19:16:12;15.70;99.90
13326;DHT22;6732;51.044;3.746;2022-10-31T19:18:40;15.70;99.90
13326;DHT22;6732;51.044;3.746;2022-10-31T19:21:08;15.70;99.90
13326;DHT22;6732;51.044;3.746;2022-10-31T19:23:35;15.70;99.90
13326;DHT22;6732;51.044;3.746;2022-10-31T19:26:01;15.70;99.90
13326;DHT22;6732;51.044;3.746;2022-10-31T19:28:32;15.70;99.90
13326;DHT22;6732;51.044;3.746;2022-10-31T19:30:58;15.80;99.90
13326;DHT22;6732;51.044;3.746;2022-10-31T19:33:25;15.80;99.90
13326;DHT22;6732;51.044;3.746;2022-10-31T19:35:58;15.80;99.90
13326;DHT22;6732;51.044;3.746;2022-10-31T19:38:24;15.80;99.90
13326;DHT22;6732;51.044;3.746;2022-10-31T19:40:59;15.80;99.90
13326;DHT22;6732;51.044;3.746;2022-10-31T19:43:26;15.80;99.90
13326;DHT22;6732;51.044;3.746;2022-10-31T19:45:57;15.80;99.90
13326;DHT22;6732;51.044;3.746;2022-10-31T19:48:24;15.80;99.90
13326;DHT22;6732;51.044;3.746;2022-10-31T19:50:51;15.80;99.90
13326;DHT22;6732;51.044;3.746;2022-10-31T19:53:18;15.80;99.90
13326;DHT22;6732;51.044;3.746;2022-10-31T19:55:44;15.80;99.90
13326;DHT22;6732;51.044;3.746;2022-10-31T19:58:11;15.80;99.90
13326;DHT22;6732;51.044;3.746;2022-10-31T20:00:38;15.80;99.90
13326;DHT22;6732;51.044;3.746;2022-10-31T20:03:04;15.80;99.90
13326;DHT22;6732;51.044;3.746;2022-10-31T20:05:31;15.80;99.90
13326;DHT22;6732;51.044;3.746;2022-10-31T20:07:57;15.90;99.90
13326;DHT22;6732;51.044;3.746;2022-10-31T20:10:23;15.80;99.90
13326;DHT22;6732;51.044;3.746;2022-10-31T20:12:50;15.80;99.90
13326;DHT22;6732;51.044;3.746;2022-10-31T20:15:16;15.80;99.90
13326;DHT22;6732;51.044;3.746;2022-10-31T20:17:42;15.90;99.90
13326;DHT22;6732;51.044;3.746;2022-10-31T20:20:08;15.90;99.90
13326;DHT22;6732;51.044;3.746;2022-10-31T20:22:35;15.90;99.90
13326;DHT22;6732;51.044;3.746;2022-10-31T20:25:02;15.90;99.90
13326;DHT22;6732;51.044;3.746;2022-10-31T20:27:28;15.90;99.90
13326;DHT22;6732;51.044;3.746;2022-10-31T20:29:54;15.90;99.90
13326;DHT22;6732;51.044;3.746;2022-10-31T20:32:20;16.00;99.90
13326;DHT22;6732;51.044;3.746;2022-10-31T20:34:46;15.90;99.90
13326;DHT22;6732;51.044;3.746;2022-10-31T20:37:13;16.00;99.90
13326;DHT22;6732;51.044;3.746;2022-10-31T20:39:39;16.00;99.90
13326;DHT22;6732;51.044;3.746;2022-10-31T20:42:05;16.00;99.90
13326;DHT22;6732;51.044;3.746;2022-10-31T20:44:32;16.00;99.90
13326;DHT22;6732;51.044;3.746;2022-10-31T20:46:57;16.00;99.90
13326;DHT22;6732;51.044;3.746;2022-10-31T20:49:24;16.00;99.90
13326;DHT22;6732;51.044;3.746;2022-10-31T20:51:50;16.00;99.90
13326;DHT22;6732;51.044;3.746;2022-10-31T20:54:16;16.00;99.90
13326;DHT22;6732;51.044;3.746;2022-10-31T20:56:43;16.00;99.90
13326;DHT22;6732;51.044;3.746;2022-10-31T20:59:09;16.00;99.90
13326;DHT22;6732;51.044;3.746;2022-10-31T21:01:37;16.00;99.90